createdAt,value
2018-11-26T05:31:11.391Z,7.42
2018-11-26T05:33:39.053Z,7.78
2018-11-26T05:36:06.655Z,8.98
2018-11-26T05:38:34.222Z,8.70
2018-11-26T05:41:01.970Z,7.90
2018-11-26T05:43:29.570Z,6.97
2018-11-26T05:45:57.206Z,8.48
2018-11-26T05:48:24.826Z,8.33
2018-11-26T05:50:52.604Z,7.62
2018-11-26T05:53:20.811Z,8.70
2018-11-26T05:55:48.446Z,7.72
2018-11-26T05:58:16.460Z,5.85
2018-11-26T06:00:44.155Z,8.10
2018-11-26T06:03:11.813Z,7.30
2018-11-26T06:05:39.462Z,8.10
2018-11-26T06:08:07.286Z,8.30
2018-11-26T06:10:35.946Z,7.22
2018-11-26T06:13:04.062Z,8.05
2018-11-26T06:15:32.005Z,9.10
2018-11-26T06:17:59.716Z,7.90
2018-11-26T06:20:27.484Z,7.67
2018-11-26T06:22:55.188Z,7.22
2018-11-26T06:25:22.934Z,7.70
2018-11-26T06:27:50.663Z,8.35
2018-11-26T06:30:19.290Z,7.62
2018-11-26T06:32:48.246Z,8.95
2018-11-26T06:35:17.180Z,7.72
2018-11-26T06:37:44.831Z,7.87
2018-11-26T06:40:13.252Z,7.00
2018-11-26T06:42:41.159Z,8.85
2018-11-26T06:45:12.375Z,8.15
2018-11-26T06:47:40.790Z,9.10
2018-11-26T06:50:10.136Z,9.90
2018-11-26T06:52:37.768Z,8.55
2018-11-26T06:55:07.022Z,8.05
2018-11-26T06:57:34.711Z,8.40
2018-11-26T07:00:02.697Z,8.65
2018-11-26T07:02:30.293Z,8.00
2018-11-26T07:04:57.925Z,7.15
2018-11-26T07:07:25.518Z,8.65
2018-11-26T07:09:53.129Z,7.50
2018-11-26T07:12:20.851Z,9.28
2018-11-26T07:14:48.548Z,8.55
2018-11-26T07:17:16.148Z,7.87
2018-11-26T07:19:43.699Z,7.42
2018-11-26T07:22:11.395Z,7.55
2018-11-26T07:24:38.955Z,7.17
2018-11-26T07:27:06.565Z,9.00
2018-11-26T07:29:34.336Z,7.35
2018-11-26T07:32:02.080Z,8.73
2018-11-26T07:34:29.902Z,8.58
2018-11-26T07:36:57.612Z,8.90
2018-11-26T07:39:25.316Z,9.00
2018-11-26T07:41:53.720Z,8.70
2018-11-26T07:44:21.311Z,7.85
2018-11-26T07:46:48.844Z,8.18
2018-11-26T07:49:16.519Z,9.35
2018-11-26T07:51:44.062Z,10.75
2018-11-26T07:54:11.835Z,8.10
2018-11-26T07:56:39.439Z,8.90
2018-11-26T07:59:07.079Z,8.50
2018-11-26T08:01:34.719Z,8.98
2018-11-26T08:04:03.101Z,9.40
2018-11-26T08:06:30.842Z,10.23
2018-11-26T08:08:58.550Z,10.85
2018-11-26T08:11:26.258Z,8.55
2018-11-26T08:13:53.997Z,10.72
2018-11-26T08:16:21.727Z,9.83
2018-11-26T08:18:49.372Z,9.60
2018-11-26T08:21:16.970Z,10.80
2018-11-26T08:23:44.586Z,9.90
2018-11-26T08:26:12.186Z,9.85
2018-11-26T08:28:39.806Z,10.30
2018-11-26T08:31:07.615Z,11.10
2018-11-26T08:33:35.674Z,10.15
2018-11-26T08:36:09.168Z,9.60
2018-11-26T08:38:42.499Z,9.75
2018-11-26T08:41:13.989Z,11.18
2018-11-26T08:43:43.944Z,11.50
2018-11-26T08:46:12.841Z,10.30
2018-11-26T08:48:46.180Z,10.35
2018-11-26T08:51:13.782Z,12.30
2018-11-26T08:53:41.460Z,13.43
2018-11-26T08:56:09.159Z,11.28
2018-11-26T08:58:36.854Z,13.60
2018-11-26T09:01:06.068Z,11.83
2018-11-26T09:03:39.176Z,14.83
2018-11-26T09:06:07.215Z,12.70
2018-11-26T09:08:36.842Z,12.10
2018-11-26T09:11:05.812Z,13.18
2018-11-26T09:13:33.422Z,11.03
2018-11-26T09:16:01.921Z,12.60
2018-11-26T09:18:30.079Z,9.95
2018-11-26T09:20:57.838Z,10.35
2018-11-26T09:23:25.438Z,11.40
2018-11-26T09:25:53.121Z,12.95
2018-11-26T09:28:20.859Z,14.30
2018-11-26T09:30:48.556Z,11.95
2018-11-26T09:33:16.530Z,12.95
2018-11-26T09:35:44.127Z,11.10
2018-11-26T09:38:13.067Z,12.40
2018-11-26T09:40:39.459Z,10.78
2018-11-26T09:43:07.448Z,9.65
2018-11-26T09:45:40.040Z,11.38
2018-11-26T09:48:03.461Z,11.25
2018-11-26T09:50:31.766Z,11.53
2018-11-26T09:52:59.479Z,12.55
2018-11-26T09:55:27.890Z,11.48
2018-11-26T09:57:55.524Z,14.43
2018-11-26T10:00:23.762Z,11.48
2018-11-26T10:02:51.941Z,12.20
2018-11-26T10:05:24.104Z,11.93
2018-11-26T10:07:51.817Z,10.43
2018-11-26T10:10:19.637Z,11.25
2018-11-26T10:12:47.488Z,10.80
2018-11-26T10:15:23.006Z,11.18
2018-11-26T10:17:50.805Z,10.78
2018-11-26T10:20:18.578Z,11.73
2018-11-26T10:22:46.848Z,12.35
2018-11-26T10:25:16.598Z,12.45
2018-11-26T10:27:44.340Z,11.40
2018-11-26T10:30:13.444Z,11.12
2018-11-26T10:32:41.435Z,11.63
2018-11-26T10:35:10.504Z,11.05
2018-11-26T10:37:38.217Z,11.97
2018-11-26T10:40:10.338Z,10.90
2018-11-26T10:42:38.208Z,13.30
2018-11-26T10:45:15.067Z,10.90
2018-11-26T10:47:42.791Z,11.68
2018-11-26T10:50:12.987Z,11.20
2018-11-26T10:52:42.698Z,11.43
2018-11-26T10:55:12.321Z,10.55
2018-11-26T10:57:39.898Z,11.90
2018-11-26T11:00:14.043Z,11.22
2018-11-26T11:02:42.544Z,12.23
2018-11-26T11:05:10.545Z,11.12
2018-11-26T11:07:38.284Z,12.60
2018-11-26T11:10:13.559Z,12.37
2018-11-26T11:12:41.262Z,11.40
2018-11-26T11:15:11.946Z,11.00
2018-11-26T11:17:39.837Z,11.65
2018-11-26T11:20:12.970Z,13.10
2018-11-26T11:22:40.674Z,11.95
2018-11-26T11:25:09.563Z,12.82
2018-11-26T11:27:37.229Z,13.75
2018-11-26T11:30:15.805Z,11.50
2018-11-26T11:32:43.471Z,11.88
2018-11-26T11:35:12.997Z,11.75
2018-11-26T11:37:41.518Z,10.08
2018-11-26T11:40:14.003Z,11.30
2018-11-26T11:42:42.416Z,10.60
2018-11-26T11:45:12.811Z,12.40
2018-11-26T11:47:40.508Z,11.28
2018-11-26T11:50:12.601Z,11.95
2018-11-26T11:52:40.229Z,10.35
2018-11-26T11:55:10.391Z,11.97
2018-11-26T11:57:38.072Z,11.22
2018-11-26T12:00:24.773Z,12.30
2018-11-26T12:02:52.368Z,9.83
2018-11-26T12:05:19.980Z,11.12
2018-11-26T12:07:47.781Z,12.50
2018-11-26T12:10:15.447Z,12.10
2018-11-26T12:12:43.246Z,10.65
2018-11-26T12:15:12.451Z,11.15
2018-11-26T12:17:41.101Z,12.28
2018-11-26T12:20:15.476Z,11.40
2018-11-26T12:22:43.743Z,10.80
2018-11-26T12:25:15.607Z,10.55
2018-11-26T12:27:43.509Z,12.50
2018-11-26T12:30:15.472Z,12.15
2018-11-26T12:32:43.146Z,12.30
2018-11-26T12:35:11.657Z,11.78
2018-11-26T12:37:39.392Z,11.90
2018-11-26T12:40:08.796Z,12.03
2018-11-26T12:42:36.447Z,11.08
2018-11-26T12:45:12.846Z,11.00
2018-11-26T12:47:40.487Z,12.80
2018-11-26T12:50:08.860Z,12.03
2018-11-26T12:52:37.774Z,11.35
2018-11-26T12:55:10.022Z,11.28
2018-11-26T12:57:38.767Z,11.97
2018-11-26T13:00:12.345Z,10.88
2018-11-26T13:02:40.044Z,11.40
2018-11-26T13:05:10.200Z,11.95
2018-11-26T13:07:37.933Z,10.45
2018-11-26T13:10:08.964Z,11.63
2018-11-26T13:12:36.744Z,10.32
2018-11-26T13:15:07.880Z,9.83
2018-11-26T13:17:36.291Z,11.60
2018-11-26T13:20:07.075Z,9.95
2018-11-26T13:22:35.318Z,10.93
2018-11-26T13:25:03.035Z,10.50
2018-11-26T13:27:30.737Z,12.20
2018-11-26T13:29:58.444Z,11.85
2018-11-26T13:32:26.797Z,10.55
2018-11-26T13:34:54.539Z,10.95
2018-11-26T13:37:22.164Z,11.63
2018-11-26T13:39:50.083Z,10.98
2018-11-26T13:42:19.203Z,11.73
2018-11-26T13:44:46.842Z,10.95
2018-11-26T13:47:14.611Z,10.65
2018-11-26T13:49:42.309Z,10.93
2018-11-26T13:52:10.667Z,10.90
2018-11-26T13:54:38.861Z,10.00
2018-11-26T13:57:06.563Z,11.05
2018-11-26T13:59:34.367Z,9.73
2018-11-26T14:02:02.158Z,9.90
2018-11-26T14:04:29.872Z,9.25
2018-11-26T14:06:58.947Z,10.82
2018-11-26T14:09:26.952Z,10.43
2018-11-26T14:11:54.632Z,11.68
2018-11-26T14:14:29.048Z,10.03
2018-11-26T14:16:57.074Z,10.25
2018-11-26T14:19:24.949Z,11.95
2018-11-26T14:21:52.911Z,10.48
2018-11-26T14:24:20.581Z,10.10
2018-11-26T14:26:48.536Z,10.32
2018-11-26T14:29:16.368Z,12.15
2018-11-26T14:31:44.837Z,10.20
2018-11-26T14:34:12.911Z,11.43
2018-11-26T14:36:40.789Z,9.70
2018-11-26T14:39:08.607Z,13.32
2018-11-26T14:41:36.236Z,11.03
2018-11-26T14:44:03.969Z,10.48
2018-11-26T14:46:31.953Z,11.15
2018-11-26T14:48:59.645Z,11.25
2018-11-26T14:51:27.473Z,11.97
2018-11-26T14:53:55.302Z,12.03
2018-11-26T14:56:23.104Z,12.58
2018-11-26T14:58:51.370Z,12.98
2018-11-26T15:01:19.379Z,13.28
2018-11-26T15:03:47.285Z,12.23
2018-11-26T15:06:15.271Z,11.57
2018-11-26T15:08:43.067Z,12.28
2018-11-26T15:11:11.382Z,13.03
2018-11-26T15:13:39.949Z,12.70
2018-11-26T15:16:07.845Z,13.65
2018-11-26T15:18:36.218Z,13.22
2018-11-26T15:21:04.273Z,14.47
2018-11-26T15:23:32.231Z,14.60
2018-11-26T15:25:59.848Z,14.58
2018-11-26T15:28:27.591Z,16.02
2018-11-26T15:30:55.742Z,15.20
2018-11-26T15:33:23.935Z,15.20
2018-11-26T15:35:51.671Z,18.10
2018-11-26T15:38:19.422Z,16.73
2018-11-26T15:40:47.172Z,17.00
2018-11-26T15:43:14.852Z,16.00
2018-11-26T15:45:42.488Z,14.33
2018-11-26T15:48:12.492Z,16.60
2018-11-26T15:50:40.497Z,12.98
2018-11-26T15:53:09.133Z,13.93
2018-11-26T15:55:37.322Z,12.93
2018-11-26T15:58:06.108Z,14.75
2018-11-26T16:00:33.977Z,18.02
2018-11-26T16:03:02.283Z,15.03
2018-11-26T16:05:31.064Z,15.60
2018-11-26T16:08:07.749Z,17.25
2018-11-26T16:10:35.523Z,15.55
2018-11-26T16:13:04.921Z,16.00
2018-11-26T16:15:34.927Z,18.07
2018-11-26T16:18:04.904Z,19.27
2018-11-26T16:20:33.269Z,15.90
2018-11-26T16:23:01.156Z,15.05
2018-11-26T16:25:29.426Z,15.93
2018-11-26T16:27:57.062Z,17.00
2018-11-26T16:30:25.266Z,15.58
2018-11-26T16:32:55.373Z,16.40
2018-11-26T16:35:26.479Z,16.30
2018-11-26T16:37:54.184Z,16.55
2018-11-26T16:40:22.632Z,16.52
2018-11-26T16:42:50.657Z,17.73
2018-11-26T16:45:19.592Z,15.35
2018-11-26T16:47:48.939Z,16.70
2018-11-26T16:50:18.156Z,15.40
2018-11-26T16:52:46.586Z,16.73
2018-11-26T16:55:15.116Z,15.83
2018-11-26T16:57:43.019Z,16.70
2018-11-26T17:00:20.634Z,16.95
2018-11-26T17:02:50.428Z,15.05
2018-11-26T17:05:23.639Z,15.75
2018-11-26T17:07:51.436Z,16.27
2018-11-26T17:10:19.221Z,17.98
2018-11-26T17:12:46.886Z,18.32
2018-11-26T17:15:16.803Z,20.10
2018-11-26T17:17:44.881Z,18.55
2018-11-26T17:20:13.571Z,18.92
2018-11-26T17:22:41.310Z,19.40
2018-11-26T17:25:12.758Z,19.90
2018-11-26T17:27:41.092Z,21.07
2018-11-26T17:30:18.960Z,29.10
2018-11-26T17:32:48.607Z,27.85
2018-11-26T17:35:16.870Z,22.80
2018-11-26T17:37:45.258Z,21.35
2018-11-26T17:40:15.411Z,18.02
2018-11-26T17:42:43.165Z,18.37
2018-11-26T17:45:11.999Z,21.27
2018-11-26T17:47:40.544Z,20.43
2018-11-26T17:50:12.090Z,20.43
2018-11-26T17:52:40.051Z,20.45
2018-11-26T17:55:08.634Z,22.30
2018-11-26T17:57:36.312Z,21.35
2018-11-26T18:00:07.734Z,19.90
2018-11-26T18:02:35.536Z,21.95
2018-11-26T18:05:04.223Z,20.60
2018-11-26T18:07:31.956Z,20.70
2018-11-26T18:12:34.053Z,22.55
2018-11-26T18:15:01.909Z,22.10
2018-11-26T18:17:29.673Z,19.27
2018-11-26T18:19:57.447Z,21.23
2018-11-26T18:22:25.094Z,22.00
2018-11-26T18:24:52.850Z,23.90
2018-11-26T18:27:20.530Z,24.87
2018-11-26T18:29:48.210Z,19.98
2018-11-26T18:32:15.820Z,20.00
2018-11-26T18:34:43.424Z,23.57
2018-11-26T18:37:11.772Z,21.73
2018-11-26T18:39:40.467Z,22.10
2018-11-26T18:42:08.179Z,22.15
2018-11-26T18:44:36.615Z,21.97
2018-11-26T18:47:04.855Z,22.87
2018-11-26T18:49:32.948Z,22.50
2018-11-26T18:52:01.592Z,24.05
2018-11-26T18:54:30.301Z,21.87
2018-11-26T18:56:58.235Z,20.85
2018-11-26T18:59:26.098Z,21.52
2018-11-26T19:01:54.794Z,20.62
2018-11-26T19:04:22.636Z,20.48
2018-11-26T19:06:50.463Z,21.77
2018-11-26T19:09:18.277Z,21.62
2018-11-26T19:11:46.164Z,21.42
2018-11-26T19:14:17.323Z,23.62
2018-11-26T19:16:47.215Z,20.92
2018-11-26T19:19:15.449Z,20.43
2018-11-26T19:21:43.317Z,22.20
2018-11-26T19:24:11.700Z,22.52
2018-11-26T19:26:39.530Z,21.65
2018-11-26T19:29:07.434Z,22.52
2018-11-26T19:31:35.261Z,22.22
2018-11-26T19:34:03.153Z,23.12
2018-11-26T19:36:31.548Z,18.17
2018-11-26T19:38:59.823Z,23.40
2018-11-26T19:41:27.805Z,25.45
2018-11-26T19:43:55.632Z,22.82
2018-11-26T19:46:23.410Z,23.10
2018-11-26T19:48:51.303Z,22.00
2018-11-26T19:51:19.168Z,21.48
2018-11-26T19:53:47.021Z,22.62
2018-11-26T19:56:14.989Z,23.30
2018-11-26T19:58:42.958Z,21.93
2018-11-26T20:01:11.785Z,21.95
2018-11-26T20:03:43.960Z,21.45
2018-11-26T20:06:14.289Z,20.65
2018-11-26T20:08:42.773Z,21.70
2018-11-26T20:11:11.161Z,21.33
2018-11-26T20:13:38.958Z,23.05
2018-11-26T20:16:12.485Z,21.95
2018-11-26T20:18:40.472Z,22.15
2018-11-26T20:21:08.332Z,22.55
2018-11-26T20:23:36.122Z,17.77
2018-11-26T20:26:03.873Z,18.32
2018-11-26T20:28:31.676Z,19.57
2018-11-26T20:30:59.565Z,19.60
2018-11-26T20:33:27.494Z,17.92
2018-11-26T20:35:55.827Z,18.77
2018-11-26T20:38:23.672Z,19.10
2018-11-26T20:40:51.588Z,17.27
2018-11-26T20:43:19.440Z,21.00
2018-11-26T20:45:48.669Z,19.00
2018-11-26T20:48:16.490Z,20.00
2018-11-26T20:50:48.913Z,18.80
2018-11-26T20:53:16.974Z,17.57
2018-11-26T20:55:44.914Z,16.75
2018-11-26T20:58:13.902Z,18.60
2018-11-26T21:00:42.016Z,17.32
2018-11-26T21:03:10.721Z,19.17
2018-11-26T21:05:39.645Z,19.60
2018-11-26T21:08:08.221Z,19.32
2018-11-26T21:10:36.204Z,17.80
2018-11-26T21:13:04.009Z,18.48
2018-11-26T21:15:31.851Z,16.15
2018-11-26T21:18:01.128Z,18.73
2018-11-26T21:20:35.643Z,18.07
2018-11-26T21:23:06.053Z,17.32
2018-11-26T21:25:34.421Z,16.23
2018-11-26T21:28:02.123Z,15.40
2018-11-26T21:30:30.629Z,15.32
2018-11-26T21:32:59.642Z,17.02
2018-11-26T21:35:27.473Z,18.60
2018-11-26T21:37:55.229Z,17.42
2018-11-26T21:40:24.201Z,15.85
2018-11-26T21:42:52.092Z,17.62
2018-11-26T21:45:28.434Z,18.65
2018-11-26T21:47:56.225Z,19.65
2018-11-26T21:50:23.846Z,16.17
2018-11-26T21:52:51.480Z,18.80
2018-11-26T21:55:19.711Z,16.87
2018-11-26T21:57:47.397Z,18.90
2018-11-26T22:00:23.989Z,19.35
2018-11-26T22:02:51.803Z,18.48
2018-11-26T22:05:19.759Z,19.48
2018-11-26T22:07:47.465Z,19.55
2018-11-26T22:10:20.011Z,20.12
2018-11-26T22:12:49.046Z,19.25
2018-11-26T22:15:17.381Z,18.65
2018-11-26T22:17:45.049Z,18.98
2018-11-26T22:20:14.502Z,17.85
2018-11-26T22:22:42.308Z,18.07
2018-11-26T22:25:11.094Z,20.50
2018-11-26T22:27:38.941Z,17.48
2018-11-26T22:30:16.045Z,18.70
2018-11-26T22:32:43.734Z,19.00
2018-11-26T22:35:11.756Z,20.82
2018-11-26T22:37:39.617Z,20.72
2018-11-26T22:40:10.280Z,21.80
2018-11-26T22:42:38.938Z,20.00
2018-11-26T22:45:09.663Z,19.27
2018-11-26T22:47:37.411Z,19.48
2018-11-26T22:50:08.716Z,20.43
2018-11-26T22:52:37.102Z,23.20
2018-11-26T22:55:05.441Z,21.82
2018-11-26T22:57:33.047Z,23.05
2018-11-26T23:00:02.139Z,22.10
2018-11-26T23:02:29.790Z,20.77
2018-11-26T23:04:57.722Z,19.50
2018-11-26T23:07:25.402Z,20.48
2018-11-26T23:09:53.103Z,20.70
2018-11-26T23:12:21.427Z,20.57
2018-11-26T23:14:49.192Z,22.25
2018-11-26T23:17:17.467Z,20.00
2018-11-26T23:19:45.151Z,19.48
2018-11-26T23:24:46.644Z,19.20
2018-11-26T23:27:17.449Z,20.05
2018-11-26T23:29:45.503Z,21.77
2018-11-26T23:32:13.454Z,23.38
2018-11-26T23:34:41.208Z,22.70
2018-11-26T23:37:11.193Z,23.80
2018-11-26T23:39:40.549Z,21.70
2018-11-26T23:42:08.249Z,21.60
2018-11-26T23:44:36.176Z,20.65
2018-11-26T23:47:04.245Z,20.82
2018-11-26T23:49:31.927Z,19.07
2018-11-26T23:51:59.497Z,20.60
2018-11-26T23:54:27.372Z,21.45
2018-11-26T23:56:54.996Z,22.48
2018-11-26T23:59:23.615Z,22.27
